sensor_id;sensor_type;location;lat;lon;timestamp;P1;durP1;ratioP1;P2;durP2;ratioP2
77040;SDS011;65974;42.664;23.264;2023-06-19T00:05:48;8.05;;;5.50;;
77040;SDS011;65974;42.664;23.264;2023-06-19T00:08:13;7.88;;;5.05;;
77040;SDS011;65974;42.664;23.264;2023-06-19T00:10:39;15.57;;;5.93;;
77040;SDS011;65974;42.664;23.264;2023-06-19T00:13:04;10.30;;;5.95;;
77040;SDS011;65974;42.664;23.264;2023-06-19T00:15:30;11.10;;;5.25;;
77040;SDS011;65974;42.664;23.264;2023-06-19T00:17:56;7.45;;;5.13;;
77040;SDS011;65974;42.664;23.264;2023-06-19T00:20:22;7.93;;;5.15;;
77040;SDS011;65974;42.664;23.264;2023-06-19T00:22:48;9.68;;;5.68;;
77040;SDS011;65974;42.664;23.264;2023-06-19T00:25:16;7.20;;;4.53;;
77040;SDS011;65974;42.664;23.264;2023-06-19T00:27:46;10.00;;;4.88;;
77040;SDS011;65974;42.664;23.264;2023-06-19T00:30:12;7.25;;;5.10;;
77040;SDS011;65974;42.664;23.264;2023-06-19T00:32:37;7.85;;;5.10;;
77040;SDS011;65974;42.664;23.264;2023-06-19T00:35:12;8.73;;;6.05;;
77040;SDS011;65974;42.664;23.264;2023-06-19T00:37:38;8.32;;;4.78;;
77040;SDS011;65974;42.664;23.264;2023-06-19T00:40:04;7.07;;;5.13;;
77040;SDS011;65974;42.664;23.264;2023-06-19T00:42:33;9.68;;;4.97;;
77040;SDS011;65974;42.664;23.264;2023-06-19T00:44:58;7.53;;;5.07;;
77040;SDS011;65974;42.664;23.264;2023-06-19T00:47:24;9.40;;;6.15;;
77040;SDS011;65974;42.664;23.264;2023-06-19T00:49:50;9.60;;;5.05;;
77040;SDS011;65974;42.664;23.264;2023-06-19T00:52:16;7.40;;;5.15;;
77040;SDS011;65974;42.664;23.264;2023-06-19T00:54:42;8.00;;;5.13;;
77040;SDS011;65974;42.664;23.264;2023-06-19T00:57:09;9.25;;;5.18;;
77040;SDS011;65974;42.664;23.264;2023-06-19T00:59:34;7.95;;;5.80;;
77040;SDS011;65974;42.664;23.264;2023-06-19T01:02:01;8.88;;;5.60;;
77040;SDS011;65974;42.664;23.264;2023-06-19T01:04:27;7.47;;;4.68;;
77040;SDS011;65974;42.664;23.264;2023-06-19T01:07:08;9.38;;;5.15;;
77040;SDS011;65974;42.664;23.264;2023-06-19T01:09:38;8.10;;;4.55;;
77040;SDS011;65974;42.664;23.264;2023-06-19T01:12:14;7.80;;;5.15;;
77040;SDS011;65974;42.664;23.264;2023-06-19T01:17:26;9.13;;;5.97;;
77040;SDS011;65974;42.664;23.264;2023-06-19T01:19:53;7.25;;;5.35;;
77040;SDS011;65974;42.664;23.264;2023-06-19T01:22:28;12.70;;;5.43;;
77040;SDS011;65974;42.664;23.264;2023-06-19T01:24:54;10.95;;;5.78;;
77040;SDS011;65974;42.664;23.264;2023-06-19T01:27:20;9.18;;;5.68;;
77040;SDS011;65974;42.664;23.264;2023-06-19T01:29:47;9.25;;;4.93;;
77040;SDS011;65974;42.664;23.264;2023-06-19T01:32:15;11.00;;;6.20;;
77040;SDS011;65974;42.664;23.264;2023-06-19T01:34:45;9.25;;;5.25;;
77040;SDS011;65974;42.664;23.264;2023-06-19T01:37:12;10.55;;;6.55;;
77040;SDS011;65974;42.664;23.264;2023-06-19T01:39:37;10.48;;;5.82;;
77040;SDS011;65974;42.664;23.264;2023-06-19T01:42:05;11.75;;;5.80;;
77040;SDS011;65974;42.664;23.264;2023-06-19T01:44:34;10.98;;;6.47;;
77040;SDS011;65974;42.664;23.264;2023-06-19T01:47:06;8.50;;;5.95;;
77040;SDS011;65974;42.664;23.264;2023-06-19T01:49:33;9.10;;;5.53;;
77040;SDS011;65974;42.664;23.264;2023-06-19T01:51:59;9.32;;;5.40;;
77040;SDS011;65974;42.664;23.264;2023-06-19T01:54:25;9.88;;;6.15;;
77040;SDS011;65974;42.664;23.264;2023-06-19T01:56:51;12.25;;;5.90;;
77040;SDS011;65974;42.664;23.264;2023-06-19T01:59:17;12.32;;;6.10;;
77040;SDS011;65974;42.664;23.264;2023-06-19T02:01:43;10.35;;;6.13;;
77040;SDS011;65974;42.664;23.264;2023-06-19T02:04:08;12.48;;;6.15;;
77040;SDS011;65974;42.664;23.264;2023-06-19T02:06:34;9.07;;;5.65;;
77040;SDS011;65974;42.664;23.264;2023-06-19T02:08:59;10.82;;;5.97;;
77040;SDS011;65974;42.664;23.264;2023-06-19T02:11:25;7.93;;;5.13;;
77040;SDS011;65974;42.664;23.264;2023-06-19T02:13:50;11.23;;;6.68;;
77040;SDS011;65974;42.664;23.264;2023-06-19T02:16:16;9.10;;;6.38;;
77040;SDS011;65974;42.664;23.264;2023-06-19T02:18:41;8.88;;;6.03;;
77040;SDS011;65974;42.664;23.264;2023-06-19T02:21:07;11.70;;;6.57;;
77040;SDS011;65974;42.664;23.264;2023-06-19T02:23:33;9.63;;;5.57;;
77040;SDS011;65974;42.664;23.264;2023-06-19T02:25:59;10.52;;;6.53;;
77040;SDS011;65974;42.664;23.264;2023-06-19T02:28:24;12.25;;;5.65;;
77040;SDS011;65974;42.664;23.264;2023-06-19T02:30:50;8.85;;;5.97;;
77040;SDS011;65974;42.664;23.264;2023-06-19T02:33:16;9.27;;;6.50;;
77040;SDS011;65974;42.664;23.264;2023-06-19T02:35:41;11.70;;;6.60;;
77040;SDS011;65974;42.664;23.264;2023-06-19T02:38:07;11.15;;;5.75;;
77040;SDS011;65974;42.664;23.264;2023-06-19T02:40:32;12.25;;;6.55;;
77040;SDS011;65974;42.664;23.264;2023-06-19T02:42:58;11.68;;;6.75;;
77040;SDS011;65974;42.664;23.264;2023-06-19T02:45:23;10.65;;;7.25;;
77040;SDS011;65974;42.664;23.264;2023-06-19T02:47:48;8.65;;;5.57;;
77040;SDS011;65974;42.664;23.264;2023-06-19T02:50:16;12.45;;;6.65;;
77040;SDS011;65974;42.664;23.264;2023-06-19T02:52:41;10.75;;;5.95;;
77040;SDS011;65974;42.664;23.264;2023-06-19T02:55:06;11.50;;;6.60;;
77040;SDS011;65974;42.664;23.264;2023-06-19T02:57:32;13.02;;;6.78;;
77040;SDS011;65974;42.664;23.264;2023-06-19T02:59:58;10.40;;;5.88;;
77040;SDS011;65974;42.664;23.264;2023-06-19T03:02:23;9.60;;;6.13;;
77040;SDS011;65974;42.664;23.264;2023-06-19T03:04:49;12.60;;;7.05;;
77040;SDS011;65974;42.664;23.264;2023-06-19T03:07:15;10.52;;;6.15;;
77040;SDS011;65974;42.664;23.264;2023-06-19T03:09:41;12.85;;;7.18;;
77040;SDS011;65974;42.664;23.264;2023-06-19T03:12:07;11.02;;;6.85;;
77040;SDS011;65974;42.664;23.264;2023-06-19T03:14:33;12.70;;;6.45;;
77040;SDS011;65974;42.664;23.264;2023-06-19T03:16:59;10.90;;;6.70;;
77040;SDS011;65974;42.664;23.264;2023-06-19T03:19:24;9.23;;;5.90;;
77040;SDS011;65974;42.664;23.264;2023-06-19T03:21:50;14.48;;;6.57;;
77040;SDS011;65974;42.664;23.264;2023-06-19T03:24:15;13.05;;;6.13;;
77040;SDS011;65974;42.664;23.264;2023-06-19T03:26:41;10.45;;;6.47;;
77040;SDS011;65974;42.664;23.264;2023-06-19T03:29:06;9.45;;;6.13;;
77040;SDS011;65974;42.664;23.264;2023-06-19T03:31:32;9.45;;;6.55;;
77040;SDS011;65974;42.664;23.264;2023-06-19T03:33:57;11.63;;;6.35;;
77040;SDS011;65974;42.664;23.264;2023-06-19T03:36:22;11.50;;;5.97;;
77040;SDS011;65974;42.664;23.264;2023-06-19T03:38:48;11.07;;;5.70;;
77040;SDS011;65974;42.664;23.264;2023-06-19T03:41:13;12.10;;;7.60;;
77040;SDS011;65974;42.664;23.264;2023-06-19T03:43:39;9.73;;;6.40;;
77040;SDS011;65974;42.664;23.264;2023-06-19T03:46:04;11.10;;;6.65;;
77040;SDS011;65974;42.664;23.264;2023-06-19T03:48:30;10.93;;;6.15;;
77040;SDS011;65974;42.664;23.264;2023-06-19T03:50:55;15.45;;;7.30;;
77040;SDS011;65974;42.664;23.264;2023-06-19T03:53:21;16.58;;;6.93;;
77040;SDS011;65974;42.664;23.264;2023-06-19T03:55:47;9.70;;;6.18;;
77040;SDS011;65974;42.664;23.264;2023-06-19T03:58:12;12.02;;;6.53;;
77040;SDS011;65974;42.664;23.264;2023-06-19T04:00:37;8.93;;;5.32;;
77040;SDS011;65974;42.664;23.264;2023-06-19T04:03:03;12.38;;;7.13;;
77040;SDS011;65974;42.664;23.264;2023-06-19T04:05:28;10.63;;;6.70;;
77040;SDS011;65974;42.664;23.264;2023-06-19T04:07:54;14.48;;;6.55;;
77040;SDS011;65974;42.664;23.264;2023-06-19T04:10:19;12.57;;;7.13;;
77040;SDS011;65974;42.664;23.264;2023-06-19T04:12:45;14.73;;;6.88;;
77040;SDS011;65974;42.664;23.264;2023-06-19T04:15:11;13.65;;;7.38;;
77040;SDS011;65974;42.664;23.264;2023-06-19T04:17:36;11.10;;;6.35;;
77040;SDS011;65974;42.664;23.264;2023-06-19T04:20:03;12.15;;;7.38;;
77040;SDS011;65974;42.664;23.264;2023-06-19T04:22:36;8.95;;;6.05;;
77040;SDS011;65974;42.664;23.264;2023-06-19T04:25:08;14.57;;;6.40;;
77040;SDS011;65974;42.664;23.264;2023-06-19T04:27:35;11.82;;;6.45;;
77040;SDS011;65974;42.664;23.264;2023-06-19T04:30:04;15.43;;;7.13;;
77040;SDS011;65974;42.664;23.264;2023-06-19T04:32:31;18.15;;;8.85;;
77040;SDS011;65974;42.664;23.264;2023-06-19T04:34:57;10.95;;;6.45;;
77040;SDS011;65974;42.664;23.264;2023-06-19T04:37:22;8.52;;;6.28;;
77040;SDS011;65974;42.664;23.264;2023-06-19T04:39:48;15.63;;;6.65;;
77040;SDS011;65974;42.664;23.264;2023-06-19T04:42:15;11.48;;;6.28;;
77040;SDS011;65974;42.664;23.264;2023-06-19T04:44:46;10.05;;;6.30;;
77040;SDS011;65974;42.664;23.264;2023-06-19T04:47:11;11.90;;;6.55;;
77040;SDS011;65974;42.664;23.264;2023-06-19T04:49:37;11.13;;;6.45;;
77040;SDS011;65974;42.664;23.264;2023-06-19T04:52:03;13.65;;;8.07;;
77040;SDS011;65974;42.664;23.264;2023-06-19T04:54:28;10.98;;;5.65;;
77040;SDS011;65974;42.664;23.264;2023-06-19T04:56:54;12.15;;;6.40;;
77040;SDS011;65974;42.664;23.264;2023-06-19T04:59:19;9.73;;;5.60;;
77040;SDS011;65974;42.664;23.264;2023-06-19T05:01:45;9.73;;;5.88;;
77040;SDS011;65974;42.664;23.264;2023-06-19T05:04:10;11.38;;;6.10;;
77040;SDS011;65974;42.664;23.264;2023-06-19T05:06:38;8.13;;;6.22;;
77040;SDS011;65974;42.664;23.264;2023-06-19T05:09:04;9.50;;;5.43;;
77040;SDS011;65974;42.664;23.264;2023-06-19T05:11:30;8.48;;;5.60;;
77040;SDS011;65974;42.664;23.264;2023-06-19T05:13:55;10.32;;;6.38;;
77040;SDS011;65974;42.664;23.264;2023-06-19T05:16:20;8.93;;;5.55;;
77040;SDS011;65974;42.664;23.264;2023-06-19T05:18:48;6.82;;;4.55;;
77040;SDS011;65974;42.664;23.264;2023-06-19T05:21:14;7.15;;;4.22;;
77040;SDS011;65974;42.664;23.264;2023-06-19T05:23:39;13.75;;;5.45;;
77040;SDS011;65974;42.664;23.264;2023-06-19T05:26:05;8.85;;;5.53;;
77040;SDS011;65974;42.664;23.264;2023-06-19T05:28:31;11.25;;;4.82;;
77040;SDS011;65974;42.664;23.264;2023-06-19T05:30:56;8.30;;;5.20;;
77040;SDS011;65974;42.664;23.264;2023-06-19T05:33:22;12.18;;;5.07;;
77040;SDS011;65974;42.664;23.264;2023-06-19T05:35:48;7.18;;;4.88;;
77040;SDS011;65974;42.664;23.264;2023-06-19T05:38:17;9.48;;;5.00;;
77040;SDS011;65974;42.664;23.264;2023-06-19T05:40:43;8.40;;;4.68;;
77040;SDS011;65974;42.664;23.264;2023-06-19T05:43:08;9.48;;;5.43;;
77040;SDS011;65974;42.664;23.264;2023-06-19T05:45:34;7.93;;;4.95;;
77040;SDS011;65974;42.664;23.264;2023-06-19T05:48:00;7.80;;;4.65;;
77040;SDS011;65974;42.664;23.264;2023-06-19T05:50:25;9.00;;;5.43;;
77040;SDS011;65974;42.664;23.264;2023-06-19T05:52:50;9.85;;;5.75;;
77040;SDS011;65974;42.664;23.264;2023-06-19T05:55:16;7.65;;;5.57;;
77040;SDS011;65974;42.664;23.264;2023-06-19T05:57:42;7.80;;;5.15;;
77040;SDS011;65974;42.664;23.264;2023-06-19T06:00:08;8.73;;;5.20;;
77040;SDS011;65974;42.664;23.264;2023-06-19T06:02:38;10.35;;;5.43;;
77040;SDS011;65974;42.664;23.264;2023-06-19T06:05:04;6.60;;;5.40;;
77040;SDS011;65974;42.664;23.264;2023-06-19T06:07:30;11.88;;;5.20;;
77040;SDS011;65974;42.664;23.264;2023-06-19T06:09:57;8.35;;;5.38;;
77040;SDS011;65974;42.664;23.264;2023-06-19T06:12:22;10.52;;;5.32;;
77040;SDS011;65974;42.664;23.264;2023-06-19T06:14:47;6.57;;;4.43;;
77040;SDS011;65974;42.664;23.264;2023-06-19T06:17:13;8.60;;;4.85;;
77040;SDS011;65974;42.664;23.264;2023-06-19T06:19:38;7.28;;;4.95;;
77040;SDS011;65974;42.664;23.264;2023-06-19T06:22:04;9.43;;;4.65;;
77040;SDS011;65974;42.664;23.264;2023-06-19T06:24:29;7.07;;;4.40;;
77040;SDS011;65974;42.664;23.264;2023-06-19T06:26:55;8.77;;;4.85;;
77040;SDS011;65974;42.664;23.264;2023-06-19T06:29:20;10.45;;;6.18;;
77040;SDS011;65974;42.664;23.264;2023-06-19T06:31:46;6.40;;;4.60;;
77040;SDS011;65974;42.664;23.264;2023-06-19T06:34:12;9.05;;;4.80;;
77040;SDS011;65974;42.664;23.264;2023-06-19T06:36:38;9.00;;;5.40;;
77040;SDS011;65974;42.664;23.264;2023-06-19T06:39:04;8.43;;;5.72;;
77040;SDS011;65974;42.664;23.264;2023-06-19T06:41:31;7.35;;;5.57;;
77040;SDS011;65974;42.664;23.264;2023-06-19T06:43:56;11.32;;;5.30;;
77040;SDS011;65974;42.664;23.264;2023-06-19T06:46:22;10.65;;;5.57;;
77040;SDS011;65974;42.664;23.264;2023-06-19T06:48:48;7.68;;;5.60;;
77040;SDS011;65974;42.664;23.264;2023-06-19T06:51:14;7.22;;;4.97;;
77040;SDS011;65974;42.664;23.264;2023-06-19T06:53:40;9.13;;;5.45;;
77040;SDS011;65974;42.664;23.264;2023-06-19T06:56:05;9.70;;;4.53;;
77040;SDS011;65974;42.664;23.264;2023-06-19T06:58:31;6.95;;;4.43;;
77040;SDS011;65974;42.664;23.264;2023-06-19T07:00:56;11.77;;;4.47;;
77040;SDS011;65974;42.664;23.264;2023-06-19T07:03:22;7.15;;;4.55;;
77040;SDS011;65974;42.664;23.264;2023-06-19T07:05:47;8.85;;;4.97;;
77040;SDS011;65974;42.664;23.264;2023-06-19T07:08:13;10.07;;;5.40;;
77040;SDS011;65974;42.664;23.264;2023-06-19T07:10:39;9.95;;;5.43;;
77040;SDS011;65974;42.664;23.264;2023-06-19T07:13:04;9.18;;;5.20;;
77040;SDS011;65974;42.664;23.264;2023-06-19T07:15:30;7.40;;;4.68;;
77040;SDS011;65974;42.664;23.264;2023-06-19T07:17:55;7.65;;;4.97;;
77040;SDS011;65974;42.664;23.264;2023-06-19T07:20:21;10.30;;;5.15;;
77040;SDS011;65974;42.664;23.264;2023-06-19T07:22:47;7.72;;;4.63;;
77040;SDS011;65974;42.664;23.264;2023-06-19T07:25:12;8.43;;;5.25;;
77040;SDS011;65974;42.664;23.264;2023-06-19T07:27:41;8.10;;;5.15;;
77040;SDS011;65974;42.664;23.264;2023-06-19T07:30:07;8.77;;;5.80;;
77040;SDS011;65974;42.664;23.264;2023-06-19T07:32:32;8.52;;;5.35;;
77040;SDS011;65974;42.664;23.264;2023-06-19T07:34:58;7.82;;;4.93;;
77040;SDS011;65974;42.664;23.264;2023-06-19T07:37:23;7.95;;;4.82;;
77040;SDS011;65974;42.664;23.264;2023-06-19T07:39:49;7.85;;;5.00;;
77040;SDS011;65974;42.664;23.264;2023-06-19T07:42:16;9.05;;;5.68;;
77040;SDS011;65974;42.664;23.264;2023-06-19T07:44:45;8.52;;;5.05;;
77040;SDS011;65974;42.664;23.264;2023-06-19T07:47:11;7.55;;;4.25;;
77040;SDS011;65974;42.664;23.264;2023-06-19T07:49:38;9.30;;;5.57;;
77040;SDS011;65974;42.664;23.264;2023-06-19T07:52:04;7.82;;;4.82;;
77040;SDS011;65974;42.664;23.264;2023-06-19T07:54:30;8.98;;;5.15;;
77040;SDS011;65974;42.664;23.264;2023-06-19T07:56:55;7.13;;;4.57;;
77040;SDS011;65974;42.664;23.264;2023-06-19T07:59:21;9.15;;;5.28;;
77040;SDS011;65974;42.664;23.264;2023-06-19T08:01:47;10.70;;;6.70;;
77040;SDS011;65974;42.664;23.264;2023-06-19T08:04:13;12.30;;;6.10;;
77040;SDS011;65974;42.664;23.264;2023-06-19T08:06:38;8.45;;;5.30;;
77040;SDS011;65974;42.664;23.264;2023-06-19T08:09:03;6.65;;;4.72;;
77040;SDS011;65974;42.664;23.264;2023-06-19T08:11:29;9.98;;;5.10;;
77040;SDS011;65974;42.664;23.264;2023-06-19T08:13:54;6.22;;;4.53;;
77040;SDS011;65974;42.664;23.264;2023-06-19T08:16:20;6.40;;;4.10;;
77040;SDS011;65974;42.664;23.264;2023-06-19T08:18:45;5.63;;;3.78;;
77040;SDS011;65974;42.664;23.264;2023-06-19T08:21:11;6.28;;;4.28;;
77040;SDS011;65974;42.664;23.264;2023-06-19T08:23:37;8.60;;;4.28;;
77040;SDS011;65974;42.664;23.264;2023-06-19T08:26:04;7.53;;;5.20;;
77040;SDS011;65974;42.664;23.264;2023-06-19T08:28:33;7.65;;;4.22;;
77040;SDS011;65974;42.664;23.264;2023-06-19T08:30:59;9.27;;;4.90;;
77040;SDS011;65974;42.664;23.264;2023-06-19T08:33:25;8.65;;;4.97;;
77040;SDS011;65974;42.664;23.264;2023-06-19T08:35:50;6.10;;;4.25;;
77040;SDS011;65974;42.664;23.264;2023-06-19T08:38:16;7.18;;;4.53;;
77040;SDS011;65974;42.664;23.264;2023-06-19T08:40:41;6.38;;;4.07;;
77040;SDS011;65974;42.664;23.264;2023-06-19T08:43:09;7.63;;;4.30;;
77040;SDS011;65974;42.664;23.264;2023-06-19T08:45:34;7.78;;;4.38;;
77040;SDS011;65974;42.664;23.264;2023-06-19T08:48:00;8.57;;;5.38;;
77040;SDS011;65974;42.664;23.264;2023-06-19T08:50:33;9.40;;;4.13;;
77040;SDS011;65974;42.664;23.264;2023-06-19T08:52:58;7.20;;;3.83;;
77040;SDS011;65974;42.664;23.264;2023-06-19T08:55:24;5.45;;;3.78;;
77040;SDS011;65974;42.664;23.264;2023-06-19T08:57:50;6.88;;;3.70;;
77040;SDS011;65974;42.664;23.264;2023-06-19T09:00:26;8.00;;;4.55;;
77040;SDS011;65974;42.664;23.264;2023-06-19T09:02:58;6.88;;;4.30;;
77040;SDS011;65974;42.664;23.264;2023-06-19T09:07:56;5.47;;;3.83;;
77040;SDS011;65974;42.664;23.264;2023-06-19T09:10:28;6.43;;;3.95;;
77040;SDS011;65974;42.664;23.264;2023-06-19T09:12:58;6.25;;;4.38;;
77040;SDS011;65974;42.664;23.264;2023-06-19T09:15:28;6.25;;;4.15;;
77040;SDS011;65974;42.664;23.264;2023-06-19T09:20:31;6.82;;;4.65;;
77040;SDS011;65974;42.664;23.264;2023-06-19T09:22:58;7.85;;;4.65;;
77040;SDS011;65974;42.664;23.264;2023-06-19T09:25:24;6.50;;;4.53;;
77040;SDS011;65974;42.664;23.264;2023-06-19T09:27:52;6.82;;;4.50;;
77040;SDS011;65974;42.664;23.264;2023-06-19T09:30:18;7.32;;;4.82;;
77040;SDS011;65974;42.664;23.264;2023-06-19T09:32:44;9.27;;;4.95;;
77040;SDS011;65974;42.664;23.264;2023-06-19T09:35:09;8.25;;;4.55;;
77040;SDS011;65974;42.664;23.264;2023-06-19T09:37:35;11.55;;;5.65;;
77040;SDS011;65974;42.664;23.264;2023-06-19T09:40:04;7.70;;;4.57;;
77040;SDS011;65974;42.664;23.264;2023-06-19T09:42:40;6.95;;;4.53;;
77040;SDS011;65974;42.664;23.264;2023-06-19T09:45:08;6.57;;;4.57;;
77040;SDS011;65974;42.664;23.264;2023-06-19T09:47:53;7.10;;;4.95;;
77040;SDS011;65974;42.664;23.264;2023-06-19T09:50:19;8.68;;;4.75;;
77040;SDS011;65974;42.664;23.264;2023-06-19T09:52:47;8.48;;;5.10;;
77040;SDS011;65974;42.664;23.264;2023-06-19T09:55:16;8.80;;;5.00;;
77040;SDS011;65974;42.664;23.264;2023-06-19T09:57:44;8.23;;;5.30;;
77040;SDS011;65974;42.664;23.264;2023-06-19T10:00:10;12.52;;;5.72;;
77040;SDS011;65974;42.664;23.264;2023-06-19T10:02:39;8.40;;;4.65;;
77040;SDS011;65974;42.664;23.264;2023-06-19T10:05:06;7.75;;;4.40;;
77040;SDS011;65974;42.664;23.264;2023-06-19T10:07:35;7.03;;;4.82;;
77040;SDS011;65974;42.664;23.264;2023-06-19T10:12:40;9.07;;;4.38;;
77040;SDS011;65974;42.664;23.264;2023-06-19T10:15:14;7.53;;;4.22;;
77040;SDS011;65974;42.664;23.264;2023-06-19T10:17:51;7.65;;;4.85;;
77040;SDS011;65974;42.664;23.264;2023-06-19T10:25:22;6.32;;;4.32;;
77040;SDS011;65974;42.664;23.264;2023-06-19T10:27:48;6.93;;;4.60;;
77040;SDS011;65974;42.664;23.264;2023-06-19T10:30:17;8.82;;;4.95;;
77040;SDS011;65974;42.664;23.264;2023-06-19T10:32:47;6.72;;;4.40;;
77040;SDS011;65974;42.664;23.264;2023-06-19T10:35:14;7.57;;;4.00;;
77040;SDS011;65974;42.664;23.264;2023-06-19T10:37:40;7.80;;;4.40;;
77040;SDS011;65974;42.664;23.264;2023-06-19T10:40:07;6.65;;;4.22;;
77040;SDS011;65974;42.664;23.264;2023-06-19T10:42:37;7.97;;;4.75;;
77040;SDS011;65974;42.664;23.264;2023-06-19T10:45:04;7.35;;;5.13;;
77040;SDS011;65974;42.664;23.264;2023-06-19T10:49:56;10.38;;;4.60;;
77040;SDS011;65974;42.664;23.264;2023-06-19T10:52:22;7.38;;;5.28;;
77040;SDS011;65974;42.664;23.264;2023-06-19T10:54:55;7.63;;;4.30;;
77040;SDS011;65974;42.664;23.264;2023-06-19T10:57:30;11.02;;;4.57;;
77040;SDS011;65974;42.664;23.264;2023-06-19T10:59:56;8.93;;;5.00;;
77040;SDS011;65974;42.664;23.264;2023-06-19T11:02:23;9.15;;;4.88;;
77040;SDS011;65974;42.664;23.264;2023-06-19T11:04:52;11.75;;;5.05;;
77040;SDS011;65974;42.664;23.264;2023-06-19T11:07:18;8.20;;;4.53;;
77040;SDS011;65974;42.664;23.264;2023-06-19T11:09:44;6.63;;;4.50;;
77040;SDS011;65974;42.664;23.264;2023-06-19T11:12:09;8.27;;;5.32;;
77040;SDS011;65974;42.664;23.264;2023-06-19T11:14:36;7.28;;;4.40;;
77040;SDS011;65974;42.664;23.264;2023-06-19T11:17:07;6.03;;;4.05;;
77040;SDS011;65974;42.664;23.264;2023-06-19T11:19:32;8.05;;;4.55;;
77040;SDS011;65974;42.664;23.264;2023-06-19T11:22:01;8.30;;;4.50;;
77040;SDS011;65974;42.664;23.264;2023-06-19T11:24:28;6.88;;;4.45;;
77040;SDS011;65974;42.664;23.264;2023-06-19T11:26:55;7.22;;;4.68;;
77040;SDS011;65974;42.664;23.264;2023-06-19T11:29:29;6.75;;;5.18;;
77040;SDS011;65974;42.664;23.264;2023-06-19T11:32:05;9.38;;;4.75;;
77040;SDS011;65974;42.664;23.264;2023-06-19T11:34:35;8.10;;;5.18;;
77040;SDS011;65974;42.664;23.264;2023-06-19T11:37:14;6.70;;;4.50;;
77040;SDS011;65974;42.664;23.264;2023-06-19T11:39:50;6.40;;;5.07;;
77040;SDS011;65974;42.664;23.264;2023-06-19T11:42:18;8.32;;;6.13;;
77040;SDS011;65974;42.664;23.264;2023-06-19T11:44:59;8.93;;;4.72;;
77040;SDS011;65974;42.664;23.264;2023-06-19T11:47:29;6.93;;;4.72;;
77040;SDS011;65974;42.664;23.264;2023-06-19T11:49:55;9.40;;;4.90;;
77040;SDS011;65974;42.664;23.264;2023-06-19T11:52:21;8.82;;;4.97;;
77040;SDS011;65974;42.664;23.264;2023-06-19T11:54:46;7.30;;;4.80;;
77040;SDS011;65974;42.664;23.264;2023-06-19T11:57:12;9.88;;;5.13;;
77040;SDS011;65974;42.664;23.264;2023-06-19T11:59:41;8.02;;;5.38;;
77040;SDS011;65974;42.664;23.264;2023-06-19T12:02:07;8.38;;;5.32;;
77040;SDS011;65974;42.664;23.264;2023-06-19T12:04:34;8.10;;;5.03;;
77040;SDS011;65974;42.664;23.264;2023-06-19T12:07:00;7.50;;;5.57;;
77040;SDS011;65974;42.664;23.264;2023-06-19T12:09:26;8.02;;;5.47;;
77040;SDS011;65974;42.664;23.264;2023-06-19T12:11:52;8.63;;;5.75;;
77040;SDS011;65974;42.664;23.264;2023-06-19T12:14:18;8.75;;;5.03;;
77040;SDS011;65974;42.664;23.264;2023-06-19T12:16:47;7.43;;;4.80;;
77040;SDS011;65974;42.664;23.264;2023-06-19T12:19:13;9.70;;;5.53;;
77040;SDS011;65974;42.664;23.264;2023-06-19T12:21:39;10.00;;;5.45;;
77040;SDS011;65974;42.664;23.264;2023-06-19T12:24:04;10.05;;;5.22;;
77040;SDS011;65974;42.664;23.264;2023-06-19T12:26:31;9.75;;;5.45;;
77040;SDS011;65974;42.664;23.264;2023-06-19T12:29:02;7.45;;;4.60;;
77040;SDS011;65974;42.664;23.264;2023-06-19T12:31:31;8.98;;;4.90;;
77040;SDS011;65974;42.664;23.264;2023-06-19T12:33:56;7.18;;;4.75;;
77040;SDS011;65974;42.664;23.264;2023-06-19T12:36:22;10.15;;;6.10;;
77040;SDS011;65974;42.664;23.264;2023-06-19T12:38:47;10.52;;;6.35;;
77040;SDS011;65974;42.664;23.264;2023-06-19T12:41:14;6.30;;;4.47;;
77040;SDS011;65974;42.664;23.264;2023-06-19T12:43:39;7.82;;;4.43;;
77040;SDS011;65974;42.664;23.264;2023-06-19T12:46:05;12.02;;;5.28;;
77040;SDS011;65974;42.664;23.264;2023-06-19T12:48:31;9.20;;;5.00;;
77040;SDS011;65974;42.664;23.264;2023-06-19T12:50:57;7.13;;;5.28;;
77040;SDS011;65974;42.664;23.264;2023-06-19T12:53:23;8.23;;;5.20;;
77040;SDS011;65974;42.664;23.264;2023-06-19T12:55:52;7.57;;;5.03;;
77040;SDS011;65974;42.664;23.264;2023-06-19T12:58:18;9.90;;;5.10;;
77040;SDS011;65974;42.664;23.264;2023-06-19T13:00:44;7.03;;;5.22;;
77040;SDS011;65974;42.664;23.264;2023-06-19T13:03:10;16.67;;;5.07;;
77040;SDS011;65974;42.664;23.264;2023-06-19T13:05:35;8.98;;;5.07;;
77040;SDS011;65974;42.664;23.264;2023-06-19T13:08:02;7.57;;;4.93;;
77040;SDS011;65974;42.664;23.264;2023-06-19T13:10:27;7.28;;;4.90;;
77040;SDS011;65974;42.664;23.264;2023-06-19T13:12:52;7.32;;;5.05;;
77040;SDS011;65974;42.664;23.264;2023-06-19T13:15:18;8.40;;;4.50;;
77040;SDS011;65974;42.664;23.264;2023-06-19T13:17:43;7.93;;;4.88;;
77040;SDS011;65974;42.664;23.264;2023-06-19T13:20:09;10.02;;;5.05;;
77040;SDS011;65974;42.664;23.264;2023-06-19T13:22:34;7.63;;;4.88;;
77040;SDS011;65974;42.664;23.264;2023-06-19T13:25:00;9.07;;;4.57;;
77040;SDS011;65974;42.664;23.264;2023-06-19T13:27:26;9.43;;;5.03;;
77040;SDS011;65974;42.664;23.264;2023-06-19T13:29:53;10.85;;;5.72;;
77040;SDS011;65974;42.664;23.264;2023-06-19T13:32:19;9.48;;;5.18;;
77040;SDS011;65974;42.664;23.264;2023-06-19T13:34:45;7.20;;;5.25;;
77040;SDS011;65974;42.664;23.264;2023-06-19T13:37:10;7.07;;;4.60;;
77040;SDS011;65974;42.664;23.264;2023-06-19T13:39:35;6.90;;;4.40;;
77040;SDS011;65974;42.664;23.264;2023-06-19T13:42:01;8.98;;;4.78;;
77040;SDS011;65974;42.664;23.264;2023-06-19T13:44:26;6.80;;;4.25;;
77040;SDS011;65974;42.664;23.264;2023-06-19T13:46:52;6.15;;;4.63;;
77040;SDS011;65974;42.664;23.264;2023-06-19T13:49:19;6.22;;;4.50;;
77040;SDS011;65974;42.664;23.264;2023-06-19T13:51:44;8.43;;;5.00;;
77040;SDS011;65974;42.664;23.264;2023-06-19T13:54:10;7.20;;;4.13;;
77040;SDS011;65974;42.664;23.264;2023-06-19T13:56:38;8.45;;;4.40;;
77040;SDS011;65974;42.664;23.264;2023-06-19T13:59:04;7.07;;;4.38;;
77040;SDS011;65974;42.664;23.264;2023-06-19T14:01:30;7.15;;;4.55;;
77040;SDS011;65974;42.664;23.264;2023-06-19T14:03:57;6.18;;;4.50;;
77040;SDS011;65974;42.664;23.264;2023-06-19T14:06:23;6.13;;;4.15;;
77040;SDS011;65974;42.664;23.264;2023-06-19T14:08:49;6.57;;;4.65;;
77040;SDS011;65974;42.664;23.264;2023-06-19T14:11:15;6.70;;;4.30;;
77040;SDS011;65974;42.664;23.264;2023-06-19T14:13:40;7.75;;;4.90;;
77040;SDS011;65974;42.664;23.264;2023-06-19T14:16:06;5.78;;;4.22;;
77040;SDS011;65974;42.664;23.264;2023-06-19T14:18:32;7.18;;;4.90;;
77040;SDS011;65974;42.664;23.264;2023-06-19T14:20:58;8.23;;;4.68;;
77040;SDS011;65974;42.664;23.264;2023-06-19T14:23:23;8.77;;;5.32;;
77040;SDS011;65974;42.664;23.264;2023-06-19T14:25:49;7.78;;;4.50;;
77040;SDS011;65974;42.664;23.264;2023-06-19T14:28:14;6.57;;;4.35;;
77040;SDS011;65974;42.664;23.264;2023-06-19T14:30:40;6.90;;;5.00;;
77040;SDS011;65974;42.664;23.264;2023-06-19T14:33:05;6.50;;;4.57;;
77040;SDS011;65974;42.664;23.264;2023-06-19T14:35:35;6.32;;;4.68;;
77040;SDS011;65974;42.664;23.264;2023-06-19T14:38:00;7.60;;;4.32;;
77040;SDS011;65974;42.664;23.264;2023-06-19T14:40:26;8.05;;;4.75;;
77040;SDS011;65974;42.664;23.264;2023-06-19T14:42:51;6.13;;;4.63;;
77040;SDS011;65974;42.664;23.264;2023-06-19T14:45:17;9.95;;;4.82;;
77040;SDS011;65974;42.664;23.264;2023-06-19T14:47:42;8.18;;;5.13;;
77040;SDS011;65974;42.664;23.264;2023-06-19T14:50:08;7.30;;;5.13;;